Time;durP1;ratioP1;P1;durP2;ratioP2;P2;SDS_P1;SDS_P2;PMS_P1;PMS_P2;Temp;Humidity;BMP_temperature;BMP_pressure;BME280_temperature;BME280_humidity;BME280_pressure;Samples;Min_cycle;Max_cycle;Signal;HPM_P1;HPM_P2
2022/05/17 00:01:16;;;;;;;;;;;;;;;16.79;63.47;101169.97;5052789;27;101837;-49
2022/05/17 00:03:44;;;;;;;3.03;1.95;;;;;;;16.79;63.89;101167.25;5051606;27;102326;-49
2022/05/17 00:06:11;;;;;;;2.67;1.90;;;;;;;16.79;63.46;101167.25;5053121;27;102940;-48
2022/05/17 00:08:39;;;;;;;4.22;2.42;;;;;;;16.79;63.47;101173.53;5049812;27;103847;-48
2022/05/17 00:11:10;;;;;;;3.10;2.10;;;;;;;16.79;63.78;101176.28;5052817;27;101878;-49
2022/05/17 00:13:36;;;;;;;2.67;1.95;;;;;;;16.79;63.47;101178.22;5051069;27;101918;-49
2022/05/17 00:16:05;;;;;;;3.97;2.03;;;;;;;16.78;64.17;101188.41;5053228;27;102179;-47
2022/05/17 00:18:33;;;;;;;2.45;1.90;;;;;;;16.78;63.77;101177.41;5051517;27;103466;-47
2022/05/17 00:21:00;;;;;;;2.30;2.08;;;;;;;16.79;64.08;101178.22;5052712;27;102553;-50
2022/05/17 00:23:27;;;;;;;3.25;2.20;;;;;;;16.79;63.85;101180.97;5050850;27;102054;-47
2022/05/17 00:25:56;;;;;;;2.63;2.10;;;;;;;16.77;63.69;101181.28;5052991;27;101887;-49
2022/05/17 00:28:23;;;;;;;3.15;1.85;;;;;;;16.79;63.88;101186.47;5050291;27;103748;-48
2022/05/17 00:30:51;;;;;;;2.47;2.00;;;;;;;16.79;63.96;101186.47;5051609;27;101841;-49
2022/05/17 00:33:20;;;;;;;3.65;2.05;;;;;;;16.78;64.15;101182.09;5050672;27;102038;-47
2022/05/17 00:35:47;;;;;;;2.65;2.05;;;;;;;16.79;63.78;101190.03;5053152;27;102190;-47
2022/05/17 00:38:15;;;;;;;2.50;1.88;;;;;;;16.79;64.17;101183.72;5051143;27;104002;-48
2022/05/17 00:40:42;;;;;;;4.13;2.20;;;;;;;16.78;64.08;101184.84;5052835;27;101974;-48
2022/05/17 00:43:12;;;;;;;3.67;1.90;;;;;;;16.77;64.13;101173.03;5050681;27;102286;-47
2022/05/17 00:45:43;;;;;;;2.85;2.05;;;;;;;16.78;64.36;101179.34;5052530;27;102387;-49
2022/05/17 00:48:10;;;;;;;2.72;1.98;;;;;;;16.78;64.08;101171.13;5051675;27;103930;-47
2022/05/17 00:50:42;;;;;;;3.42;2.22;;;;;;;16.79;64.44;101172.72;5051864;27;101910;-47
2022/05/17 00:53:12;;;;;;;2.13;1.80;;;;;;;16.78;64.32;101176.59;5049893;27;102262;-47
2022/05/17 00:55:43;;;;;;;3.50;1.95;;;;;;;16.78;63.94;101182.09;5052976;27;101999;-50
2022/05/17 00:58:13;;;;;;;2.90;2.10;;;;;;;16.78;64.44;101176.59;5050593;27;104253;-47
2022/05/17 01:00:47;;;;;;;4.30;2.10;;;;;;;16.78;64.30;101174.66;5050644;27;101939;-48
2022/05/17 01:03:17;;;;;;;2.50;2.00;;;;;;;16.77;64.06;101169.50;5048342;27;102297;-47
2022/05/17 01:05:49;;;;;;;4.53;2.20;;;;;;;16.78;64.24;101160.13;5053491;27;102058;-48
2022/05/17 01:08:18;;;;;;;3.00;1.85;;;;;;;16.78;64.50;101165.63;5051626;27;104128;-48
2022/05/17 01:10:47;;;;;;;2.88;2.03;;;;;;;16.78;64.30;101171.13;5052401;27;102539;-48
2022/05/17 01:16:02;;;;;;;2.15;1.95;;;;;;;16.78;64.07;101165.63;5052739;27;102269;-49
2022/05/17 01:18:32;;;;;;;2.50;1.83;;;;;;;16.77;64.09;101164.81;5050934;27;103824;-49
2022/05/17 01:21:01;;;;;;;4.05;2.30;;;;;;;16.77;64.36;101170.31;5051471;27;102960;-47
2022/05/17 01:23:27;;;;;;;;;;;;;;;16.78;63.82;101165.63;5047212;27;104341;-47
2022/05/17 01:25:53;;;;;;;2.35;2.08;;;;;;;16.78;63.85;101168.38;5032384;27;102460;-47
2022/05/17 01:28:24;;;;;;;2.95;2.00;;;;;;;16.78;64.15;101171.13;5046749;27;103713;-50
2022/05/17 01:30:51;;;;;;;3.65;2.17;;;;;;;16.78;64.14;101160.13;5051731;27;102239;-49
2022/05/17 01:33:20;;;;;;;3.08;2.17;;;;;;;16.78;64.01;101165.63;5051058;27;102008;-50
2022/05/17 01:35:47;;;;;;;;;;;;;;;16.78;64.03;101154.63;5053278;27;102166;-48
2022/05/17 01:38:15;;;;;;;2.45;2.10;;;;;;;16.78;63.85;101165.63;5045886;27;103822;-48
2022/05/17 01:40:41;;;;;;;3.60;2.33;;;;;;;16.78;64.17;101160.13;5051474;27;103144;-48
2022/05/17 01:43:08;;;;;;;3.47;2.42;;;;;;;16.77;64.14;101161.25;5052026;27;102255;-50
2022/05/17 01:45:35;;;;;;;3.30;2.65;;;;;;;16.78;63.96;101154.63;5055936;27;102349;-50
2022/05/17 01:48:01;;;;;;;2.72;2.05;;;;;;;16.77;64.24;101164.00;5053045;27;103933;-47
2022/05/17 01:50:28;;;;;;;3.92;1.92;;;;;;;16.77;64.14;101147.50;5053584;27;101786;-48
2022/05/17 01:52:55;;;;;;;5.13;2.38;;;;;;;16.77;64.12;101147.50;5053800;27;101948;-48
2022/05/17 01:55:23;;;;;;;2.40;2.17;;;;;;;16.77;63.82;101145.56;5054287;27;102317;-49
2022/05/17 01:57:49;;;;;;;2.45;2.15;;;;;;;16.77;64.19;101153.81;5054088;27;103968;-48
2022/05/17 02:00:20;;;;;;;3.50;2.10;;;;;;;16.77;64.34;101153.00;5053109;27;102372;-50
2022/05/17 02:02:46;;;;;;;2.53;2.25;;;;;;;16.76;64.12;101148.59;5054831;27;102464;-52
2022/05/17 02:05:15;;;;;;;3.38;2.08;;;;;;;16.76;64.12;101143.09;5055809;27;102116;-48
2022/05/17 02:07:42;;;;;;;4.60;2.22;;;;;;;16.76;64.10;101140.34;5052676;27;103925;-47
2022/05/17 02:10:10;;;;;;;4.22;2.47;;;;;;;16.77;63.72;101133.75;5054028;27;101945;-48
2022/05/17 02:12:57;;;;;;;2.88;2.40;;;;;;;16.75;64.13;101127.75;5054191;27;102256;-48
2022/05/17 02:15:25;;;;;;;2.35;2.15;;;;;;;16.73;64.49;101118.94;5055309;27;102337;-50
2022/05/17 02:17:52;;;;;;;2.60;2.10;;;;;;;16.73;64.39;101119.78;5054258;27;103997;-49
2022/05/17 02:20:19;;;;;;;3.25;2.42;;;;;;;16.73;64.52;101118.94;5053571;27;102073;-48
2022/05/17 02:22:46;;;;;;;3.88;2.28;;;;;;;16.73;64.58;101113.44;5053124;27;102275;-47
2022/05/17 02:25:12;;;;;;;2.60;1.90;;;;;;;16.74;64.20;101112.38;5054770;27;102089;-49
2022/05/17 02:27:40;;;;;;;3.85;2.30;;;;;;;16.75;64.17;101119.50;5053399;27;104125;-46
2022/05/17 02:30:11;;;;;;;3.28;2.53;;;;;;;16.75;64.31;101116.75;5052230;27;102309;-48
2022/05/17 02:32:38;;;;;;;2.88;2.20;;;;;;;16.75;63.90;101122.25;5052961;27;101955;-49
2022/05/17 02:35:07;;;;;;;3.55;2.10;;;;;;;16.75;63.82;101116.75;5049939;27;102420;-49
2022/05/17 02:37:34;;;;;;;3.67;2.38;;;;;;;16.75;64.05;101105.75;5051903;27;103888;-51
2022/05/17 02:40:00;;;;;;;2.95;2.42;;;;;;;16.75;64.36;101111.25;5054038;27;102250;-48
2022/05/17 02:42:27;;;;;;;2.75;2.08;;;;;;;16.75;64.46;101111.25;5053760;27;102333;-49
2022/05/17 02:44:54;;;;;;;3.15;2.35;;;;;;;16.75;64.19;101108.50;5055019;27;102458;-50
2022/05/17 02:47:23;;;;;;;4.07;2.33;;;;;;;16.75;64.25;101103.00;5052515;27;103877;-47
2022/05/17 02:49:50;;;;;;;;;;;;;;;16.75;64.38;101100.25;5052651;27;102318;-47
2022/05/17 02:52:16;;;;;;;3.50;1.98;;;;;;;16.75;64.18;101105.75;5052731;27;102553;-50
2022/05/17 02:54:46;;;;;;;2.47;2.00;;;;;;;16.74;64.27;101098.63;5054123;27;101929;-47
2022/05/17 02:57:12;;;;;;;2.80;2.15;;;;;;;16.75;64.49;101108.50;5051124;27;104110;-51
2022/05/17 02:59:39;;;;;;;2.80;2.05;;;;;;;16.75;64.36;101114.00;5053285;27;102424;-47
2022/05/17 03:02:09;;;;;;;2.58;2.20;;;;;;;16.76;64.32;101130.16;5053506;27;102207;-48
2022/05/17 03:04:36;;;;;;;3.92;2.33;;;;;;;16.75;64.34;101138.72;5054636;27;102085;-48
2022/05/17 03:07:04;;;;;;;2.13;1.77;;;;;;;16.74;64.64;101137.09;5051163;27;104068;-49
2022/05/17 03:09:31;;;;;;;2.13;1.92;;;;;;;16.75;64.36;101138.72;5053768;27;102481;-47
2022/05/17 03:12:02;;;;;;;2.45;2.17;;;;;;;16.75;64.68;101133.22;5053222;27;102522;-50
2022/05/17 03:14:29;;;;;;;;;;;;;;;16.74;64.10;101137.09;5054198;27;102447;-48
2022/05/17 03:16:56;;;;;;;3.28;2.40;;;;;;;16.75;64.50;101127.75;5052839;27;104025;-47
2022/05/17 03:19:23;;;;;;;3.58;2.10;;;;;;;16.73;64.31;101125.28;5053850;27;102231;-47
2022/05/17 03:21:51;;;;;;;2.53;2.03;;;;;;;16.74;64.53;101126.13;5051919;27;102474;-49
2022/05/17 03:24:17;;;;;;;2.55;2.08;;;;;;;16.74;64.69;101129.66;5052759;27;102154;-47
2022/05/17 03:26:44;;;;;;;3.13;2.20;;;;;;;16.75;64.30;101138.72;5052329;27;103779;-47
2022/05/17 03:29:11;;;;;;;2.53;2.15;;;;;;;16.75;64.74;101138.72;5053318;27;101917;-48
2022/05/17 03:31:37;;;;;;;2.15;1.92;;;;;;;16.75;64.36;101131.28;5052302;27;101939;-47
2022/05/17 03:34:04;;;;;;;2.20;1.88;;;;;;;16.75;64.51;101142.28;5052965;27;102123;-47
2022/05/17 03:36:30;;;;;;;2.83;2.00;;;;;;;16.76;64.75;101148.59;5052508;27;103859;-48
2022/05/17 03:38:58;;;;;;;3.03;2.13;;;;;;;16.76;64.56;101145.84;5041532;27;102273;-49
2022/05/17 03:41:24;;;;;;;3.33;2.08;;;;;;;16.76;64.80;101140.34;5050538;27;102206;-48
2022/05/17 03:43:51;;;;;;;2.13;1.92;;;;;;;16.74;64.53;101137.09;5051986;27;102428;-48
2022/05/17 03:46:18;;;;;;;2.58;2.10;;;;;;;16.74;64.95;101148.91;5052852;27;104036;-50
2022/05/17 03:48:45;;;;;;;3.08;2.10;;;;;;;16.74;64.59;101146.16;5045485;27;102484;-48
2022/05/17 03:51:13;;;;;;;2.53;2.00;;;;;;;16.73;64.82;101135.41;5032923;27;102402;-47
2022/05/17 03:53:40;;;;;;;3.57;2.03;;;;;;;16.73;64.63;101135.41;5038475;27;102168;-47
2022/05/17 03:56:07;;;;;;;4.72;2.50;;;;;;;16.71;64.30;101140.44;5046983;27;103881;-50
2022/05/17 03:58:35;;;;;;;4.45;2.13;;;;;;;16.71;64.29;101127.50;5048337;27;102010;-51
2022/05/17 04:01:01;;;;;;;2.40;1.80;;;;;;;16.70;64.37;101133.31;5053090;27;102016;-47
2022/05/17 04:03:28;;;;;;;3.08;2.38;;;;;;;16.72;64.17;101136.56;5053234;27;101883;-50
2022/05/17 04:05:55;;;;;;;2.97;2.38;;;;;;;16.71;64.46;101140.44;5050309;27;103998;-48
2022/05/17 04:08:21;;;;;;;4.20;2.22;;;;;;;16.70;64.43;101141.53;5051422;27;102111;-47
2022/05/17 04:10:59;;;;;;;4.18;2.10;;;;;;;16.72;64.75;101139.31;5052171;27;101888;-48
2022/05/17 04:13:29;;;;;;;4.07;2.00;;;;;;;16.71;64.27;101140.44;5052547;27;102497;-47
2022/05/17 04:15:56;;;;;;;3.85;2.50;;;;;;;16.72;64.43;101139.31;5051284;27;103952;-48
2022/05/17 04:18:23;;;;;;;2.60;2.28;;;;;;;16.72;64.82;101133.81;5052565;27;102477;-47
2022/05/17 04:20:49;;;;;;;3.55;2.67;;;;;;;16.73;64.65;101135.41;5052669;27;102003;-47
2022/05/17 04:23:17;;;;;;;7.13;2.20;;;;;;;16.73;64.42;101118.94;5052487;27;102067;-47
2022/05/17 04:25:44;;;;;;;11.00;3.35;;;;;;;16.73;64.31;101119.78;5050846;27;103455;-49
2022/05/17 04:28:11;;;;;;;4.18;2.40;;;;;;;16.73;64.32;101125.28;5052538;27;102203;-47
2022/05/17 04:30:39;;;;;;;4.18;3.33;;;;;;;16.73;64.23;101118.94;5051317;27;102514;-47
2022/05/17 04:33:07;;;;;;;3.45;2.38;;;;;;;16.76;64.32;101123.84;5052263;27;102339;-48
2022/05/17 04:35:33;;;;;;;4.60;2.30;;;;;;;16.76;64.76;101130.16;5049893;27;103482;-48
2022/05/17 04:38:00;;;;;;;6.35;2.08;;;;;;;16.78;64.85;101135.38;5049339;27;102911;-50
2022/05/17 04:40:27;;;;;;;5.97;2.08;;;;;;;16.79;64.75;101137.00;5051900;27;102027;-48
2022/05/17 04:42:57;;;;;;;2.85;2.08;;;;;;;16.78;64.80;101133.44;5052132;27;102618;-48
2022/05/17 04:45:24;;;;;;;2.70;2.17;;;;;;;16.78;64.81;101135.38;5041350;27;103307;-47
2022/05/17 04:47:52;;;;;;;6.00;2.20;;;;;;;16.79;64.83;101134.25;5035710;27;102141;-49
2022/05/17 04:50:20;;;;;;;3.38;2.20;;;;;;;16.79;65.22;101128.75;5051961;27;102361;-48
2022/05/17 04:52:47;;;;;;;3.10;1.98;;;;;;;16.79;65.05;101134.25;5053057;27;102385;-46
2022/05/17 04:55:17;;;;;;;2.63;2.00;;;;;;;16.79;64.90;101128.75;5051189;27;103859;-46
2022/05/17 04:57:47;;;;;;;2.33;1.95;;;;;;;16.80;65.07;101124.88;5050297;27;102431;-47
2022/05/17 05:00:16;;;;;;;2.13;2.00;;;;;;;16.80;64.94;101142.22;5050599;27;102347;-50
2022/05/17 05:02:43;;;;;;;3.00;2.10;;;;;;;16.80;65.20;101147.72;5052804;27;102190;-49
2022/05/17 05:05:12;;;;;;;2.25;2.00;;;;;;;16.80;64.98;101141.38;5051570;27;103861;-47
2022/05/17 05:07:39;;;;;;;3.92;2.30;;;;;;;16.81;64.74;101145.78;5050036;27;102562;-46
2022/05/17 05:10:07;;;;;;;2.28;2.08;;;;;;;16.80;64.86;101141.38;5052067;27;101923;-48
2022/05/17 05:12:35;;;;;;;2.92;2.17;;;;;;;16.81;64.89;101132.03;5051485;27;102141;-48
2022/05/17 05:15:02;;;;;;;2.80;2.20;;;;;;;16.80;64.51;101136.72;5051304;27;104115;-47
2022/05/17 05:17:32;;;;;;;2.47;2.25;;;;;;;16.81;65.11;101143.03;5047220;27;102664;-47
2022/05/17 05:20:00;;;;;;;2.10;1.90;;;;;;;16.83;64.55;101140.78;5055520;27;102447;-48
2022/05/17 05:22:29;;;;;;;2.40;1.95;;;;;;;16.84;64.80;101130.59;5054677;27;102484;-47
2022/05/17 05:24:56;;;;;;;3.13;2.03;;;;;;;16.84;64.76;101131.44;5055152;27;104026;-48
2022/05/17 05:27:24;;;;;;;3.03;2.20;;;;;;;16.84;64.80;101125.09;5051199;27;104200;-51
2022/05/17 05:29:50;;;;;;;2.60;2.00;;;;;;;16.84;65.14;101123.19;5053371;27;102611;-48
2022/05/17 05:32:17;;;;;;;4.28;1.90;;;;;;;16.85;64.77;101122.06;5052884;27;102571;-48
2022/05/17 05:34:43;;;;;;;2.10;1.85;;;;;;;16.87;64.98;101125.28;5054783;27;103892;-50
2022/05/17 05:37:10;;;;;;;2.45;2.10;;;;;;;16.86;64.84;101115.44;5055404;27;101947;-48
2022/05/17 05:39:38;;;;;;;2.35;1.88;;;;;;;16.88;64.58;101118.69;5054989;27;101937;-49
2022/05/17 05:42:05;;;;;;;2.95;2.00;;;;;;;16.92;64.88;101111.47;5045894;27;102588;-49
2022/05/17 05:44:32;;;;;;;2.30;1.98;;;;;;;16.95;64.43;101110.88;5034336;28;103944;-50
2022/05/17 05:47:00;;;;;;;3.22;1.90;;;;;;;16.98;64.72;101112.97;5037779;27;102241;-49
2022/05/17 05:49:27;;;;;;;3.60;1.90;;;;;;;17.00;65.24;101119.00;5054170;27;101911;-47
2022/05/17 05:51:53;;;;;;;1.73;1.63;;;;;;;17.02;64.79;101133.28;5054497;27;102219;-48
2022/05/17 05:54:20;;;;;;;2.13;1.85;;;;;;;17.03;64.70;101126.66;5054373;27;104182;-50
2022/05/17 05:56:47;;;;;;;2.03;1.80;;;;;;;17.05;64.70;101126.31;5055284;27;102461;-48
2022/05/17 05:59:15;;;;;;;2.05;1.80;;;;;;;17.04;64.35;101125.53;5054312;27;102176;-48
2022/05/17 06:01:44;;;;;;;2.78;1.67;;;;;;;17.06;64.93;101116.97;5052244;27;102557;-48
2022/05/17 06:04:14;;;;;;;2.38;1.70;;;;;;;17.07;64.65;101128.78;5045488;27;103443;-49
2022/05/17 06:06:42;;;;;;;2.87;2.10;;;;;;;17.07;64.82;101120.53;5047136;27;102663;-47
2022/05/17 06:09:08;;;;;;;2.72;1.80;;;;;;;17.08;64.84;101130.41;5048961;27;102254;-50
2022/05/17 06:11:36;;;;;;;2.38;1.90;;;;;;;17.10;64.70;101133.69;5045751;27;102763;-48
2022/05/17 06:14:05;;;;;;;2.88;1.92;;;;;;;17.11;64.58;101130.63;5046196;27;103990;-49
2022/05/17 06:16:32;;;;;;;2.35;1.50;;;;;;;17.13;64.30;101130.31;5053530;27;101927;-48
2022/05/17 06:18:58;;;;;;;2.33;1.92;;;;;;;17.14;64.65;101129.19;5053504;27;102306;-51
2022/05/17 06:21:25;;;;;;;2.00;1.73;;;;;;;17.17;64.61;101128.59;5044283;27;102158;-51
2022/05/17 06:23:52;;;;;;;3.58;1.52;;;;;;;17.18;64.48;101130.22;5044181;27;104030;-47
2022/05/17 06:26:19;;;;;;;4.35;1.67;;;;;;;17.20;64.68;101130.72;5048380;27;102278;-47
2022/05/17 06:28:46;;;;;;;2.88;1.80;;;;;;;17.20;64.74;101126.06;5053289;27;102125;-47
2022/05/17 06:31:13;;;;;;;1.85;1.67;;;;;;;17.23;64.67;101124.59;5055291;27;102718;-48
2022/05/17 06:33:40;;;;;;;2.30;1.80;;;;;;;17.27;64.40;101128.38;5052503;27;103899;-48
2022/05/17 06:36:06;;;;;;;3.58;1.80;;;;;;;17.28;64.89;101130.03;5047829;27;102705;-50
2022/05/17 06:38:33;;;;;;;2.88;1.98;;;;;;;17.29;64.89;101131.63;5045514;27;101980;-47
2022/05/17 06:41:01;;;;;;;1.67;1.42;;;;;;;17.32;64.52;101135.72;5055031;27;102026;-51
2022/05/17 06:43:28;;;;;;;1.80;1.50;;;;;;;17.31;64.43;101134.91;5053258;27;103849;-47
2022/05/17 06:45:54;;;;;;;2.13;1.77;;;;;;;17.34;64.40;101142.53;5054395;27;101940;-47
2022/05/17 06:48:22;;;;;;;2.58;1.70;;;;;;;17.37;64.28;101139.16;5053510;27;102421;-51
2022/05/17 06:50:51;;;;;;;3.95;1.60;;;;;;;17.38;64.41;101140.81;5055249;27;102611;-50
2022/05/17 06:53:18;;;;;;;3.42;1.83;;;;;;;17.40;63.90;101138.56;5052089;27;104006;-47
2022/05/17 06:55:44;;;;;;;4.93;1.67;;;;;;;17.40;63.97;101137.75;5054510;27;102315;-49
2022/05/17 06:58:11;;;;;;;2.67;1.38;;;;;;;17.39;64.61;101147.13;5053597;27;102696;-48
2022/05/17 07:00:38;;;;;;;2.30;1.70;;;;;;;17.38;63.69;101129.81;5054549;27;102220;-47
2022/05/17 07:03:05;;;;;;;3.63;1.80;;;;;;;17.36;64.17;101131.22;5053036;27;103401;-48
2022/05/17 07:05:34;;;;;;;2.28;1.52;;;;;;;17.35;64.04;101138.69;5049116;27;101955;-47
2022/05/17 07:08:02;;;;;;;1.75;1.65;;;;;;;17.33;64.35;101137.34;5035649;27;102511;-49
2022/05/17 07:13:14;;;;;;;2.75;1.70;;;;;;;17.32;64.32;101135.72;5048747;27;104009;-47
2022/05/17 07:15:42;;;;;;;2.63;1.75;;;;;;;17.31;64.42;101129.41;5032524;27;102038;-47
2022/05/17 07:18:11;;;;;;;2.30;1.70;;;;;;;17.32;64.53;101136.53;5037958;27;102008;-47
2022/05/17 07:20:40;;;;;;;2.65;1.80;;;;;;;17.34;63.97;101137.03;5053958;27;102093;-48
2022/05/17 07:23:09;;;;;;;2.80;1.65;;;;;;;17.34;63.99;101127.97;5047050;27;103867;-48
2022/05/17 07:25:37;;;;;;;2.42;1.63;;;;;;;17.34;63.95;101131.53;5050170;27;102387;-48
2022/05/17 07:28:05;;;;;;;2.20;1.60;;;;;;;17.34;63.84;101134.28;5042658;27;102406;-48
2022/05/17 07:30:33;;;;;;;1.60;1.50;;;;;;;17.35;63.85;101127.66;5035018;27;102592;-51
2022/05/17 07:32:59;;;;;;;2.42;1.70;;;;;;;17.37;64.16;101127.34;5040123;27;104408;-50
2022/05/17 07:35:27;;;;;;;2.38;1.80;;;;;;;17.38;64.31;101140.81;5042506;27;102301;-50
2022/05/17 07:37:55;;;;;;;3.80;1.57;;;;;;;17.38;64.33;101132.56;5037314;27;103543;-53
2022/05/17 07:40:22;;;;;;;3.00;1.80;;;;;;;17.41;63.76;101137.44;5052629;27;102256;-47
2022/05/17 07:42:50;;;;;;;2.45;1.80;;;;;;;17.41;64.13;101137.44;5052358;27;103929;-51
2022/05/17 07:45:16;;;;;;;1.63;1.50;;;;;;;17.42;63.99;101138.25;5052703;27;102588;-49
2022/05/17 07:47:43;;;;;;;2.58;1.67;;;;;;;17.42;63.72;101135.50;5042740;27;101987;-49
2022/05/17 07:50:12;;;;;;;2.25;1.75;;;;;;;17.41;63.90;101134.69;5054339;27;102164;-47
2022/05/17 07:52:41;;;;;;;2.87;1.77;;;;;;;17.43;63.85;101132.44;5059616;27;103954;-51
2022/05/17 07:55:10;;;;;;;2.20;1.60;;;;;;;17.44;63.62;101125.81;5040694;27;102110;-47
2022/05/17 07:57:39;;;;;;;4.35;1.73;;;;;;;17.45;64.21;101132.94;5042313;27;104225;-50
2022/05/17 08:00:07;;;;;;;2.30;2.10;;;;;;;17.44;64.11;101134.06;5042886;27;102760;-48
2022/05/17 08:02:39;;;;;;;4.43;1.88;;;;;;;17.43;63.85;101126.94;5052098;27;104022;-48
2022/05/17 08:05:06;;;;;;;2.38;1.83;;;;;;;17.44;64.10;101128.56;5050927;27;102253;-47
2022/05/17 08:07:32;;;;;;;2.30;1.40;;;;;;;17.44;63.50;101134.06;5051771;27;102333;-48
2022/05/17 08:10:01;;;;;;;1.80;1.70;;;;;;;17.45;63.93;101118.38;5049928;27;102411;-50
2022/05/17 08:12:30;;;;;;;2.53;1.92;;;;;;;17.46;63.86;101120.00;5050192;27;103994;-48
2022/05/17 08:14:57;;;;;;;;;;;;;;;17.46;63.39;101115.31;5053633;27;102475;-48
2022/05/17 08:17:23;;;;;;;1.60;1.50;;;;;;;17.48;63.71;101118.56;5052117;27;102185;-49
2022/05/17 08:19:51;;;;;;;3.35;1.70;;;;;;;17.47;63.71;101111.44;5051662;27;102283;-48
2022/05/17 08:22:17;;;;;;;3.35;1.63;;;;;;;17.47;63.34;101108.69;5051704;27;103971;-47
2022/05/17 08:27:36;;;;;;;3.05;1.70;;;;;;;17.49;63.82;101111.97;5032433;27;102112;-49
2022/05/17 08:30:08;;;;;;;2.53;1.52;;;;;;;17.51;63.82;101103.38;5050977;27;102259;-50
2022/05/17 08:35:20;;;;;;;1.98;1.42;;;;;;;17.50;63.39;101104.50;5050613;27;102387;-47
2022/05/17 08:37:47;;;;;;;1.55;1.23;;;;;;;17.51;63.65;101101.44;5050629;27;102879;-48
2022/05/17 08:40:19;;;;;;;1.52;1.42;;;;;;;17.53;63.51;101099.22;5054039;27;102357;-47
2022/05/17 08:42:58;;;;;;;3.90;1.50;;;;;;;17.51;63.63;101090.44;5051407;27;104131;-47
2022/05/17 08:45:31;;;;;;;;;;;;;;;17.56;63.29;101092.25;5042615;27;102703;-48
2022/05/17 08:47:58;;;;;;;3.35;1.30;;;;;;;17.58;63.21;101083.69;5042783;27;104120;-47
2022/05/17 08:50:28;;;;;;;1.85;1.58;;;;;;;17.57;63.26;101079.34;5042889;27;102560;-51
2022/05/17 08:52:56;;;;;;;1.77;1.50;;;;;;;17.57;63.52;101091.16;5039869;27;104062;-50
2022/05/17 08:55:27;;;;;;;1.50;1.38;;;;;;;17.56;63.04;101083.19;5051988;27;102139;-49
2022/05/17 08:57:58;;;;;;;1.77;1.65;;;;;;;17.54;63.35;101095.31;5051556;27;102384;-48
2022/05/17 09:00:31;;;;;;;2.28;1.45;;;;;;;17.53;63.45;101082.69;5044932;27;102068;-49
2022/05/17 09:03:02;;;;;;;1.92;1.58;;;;;;;17.52;62.99;101086.56;5036747;27;102954;-51
2022/05/17 09:05:33;;;;;;;1.77;1.60;;;;;;;17.53;63.59;101079.13;5052656;27;101869;-49
2022/05/17 09:08:11;;;;;;;1.67;1.40;;;;;;;17.53;63.48;101081.88;5039594;27;102203;-49
2022/05/17 09:10:39;;;;;;;2.15;1.50;;;;;;;17.52;63.10;101080.25;5050981;27;102155;-46
2022/05/17 09:13:12;;;;;;;1.60;1.50;;;;;;;17.52;63.23;101081.03;5048434;27;103871;-48
2022/05/17 09:15:40;;;;;;;1.45;1.35;;;;;;;17.53;63.47;101071.69;5045252;27;102385;-47
2022/05/17 09:18:10;;;;;;;2.47;1.60;;;;;;;17.51;63.74;101064.84;5046630;27;102459;-48
2022/05/17 09:20:38;;;;;;;2.13;1.67;;;;;;;17.52;63.61;101070.03;5050614;27;102070;-49
2022/05/17 09:23:07;;;;;;;1.85;1.48;;;;;;;17.51;63.40;101071.19;5039845;27;103990;-49
2022/05/17 09:25:51;;;;;;;1.60;1.50;;;;;;;17.53;63.13;101071.69;5043954;27;101994;-47
2022/05/17 09:28:22;;;;;;;1.50;1.30;;;;;;;17.51;63.04;101062.91;5038359;27;103462;-47
2022/05/17 09:31:06;;;;;;;1.70;1.33;;;;;;;17.50;63.02;101064.06;5050340;27;102003;-51
2022/05/17 09:33:33;;;;;;;3.53;2.03;;;;;;;17.50;63.18;101066.81;5049917;27;103401;-47
2022/05/17 09:36:02;;;;;;;2.03;1.83;;;;;;;17.49;63.56;101059.69;5051065;27;102270;-50
2022/05/17 09:38:30;;;;;;;1.98;1.50;;;;;;;17.49;63.63;101058.84;5039528;27;102479;-47
2022/05/17 09:40:57;;;;;;;1.63;1.52;;;;;;;17.48;63.27;101062.72;5047652;27;102321;-48
2022/05/17 09:43:44;;;;;;;2.55;1.33;;;;;;;17.46;63.82;101065.00;5046142;27;103799;-49
2022/05/17 09:46:12;;;;;;;1.83;1.52;;;;;;;17.45;63.70;101064.16;5044033;27;102491;-47
2022/05/17 09:54:27;;;;;;;1.50;1.20;;;;;;;17.40;64.13;101069.78;5046179;27;103891;-49
2022/05/17 09:56:55;;;;;;;1.55;1.45;;;;;;;17.39;63.77;101068.16;5049349;27;102391;-49
2022/05/17 09:59:23;;;;;;;1.50;1.40;;;;;;;17.38;64.22;101069.28;5044531;27;102640;-48
2022/05/17 10:01:50;;;;;;;1.50;1.40;;;;;;;17.38;63.68;101079.44;5047057;27;102603;-50
2022/05/17 10:04:20;;;;;;;1.50;1.40;;;;;;;17.38;64.10;101072.03;5047947;27;103980;-47
2022/05/17 10:06:56;;;;;;;1.63;1.15;;;;;;;17.39;63.92;101070.91;5051574;27;102026;-48
2022/05/17 10:09:30;;;;;;;1.83;1.30;;;;;;;17.40;64.32;101069.78;5033575;27;102496;-48
2022/05/17 10:12:05;;;;;;;1.60;1.30;;;;;;;17.41;64.16;101065.91;5054082;27;102441;-47
2022/05/17 10:14:37;;;;;;;1.88;1.35;;;;;;;17.42;63.96;101067.53;5045760;27;103912;-50
2022/05/17 10:17:09;;;;;;;1.20;1.10;;;;;;;17.42;64.09;101070.28;5051789;27;102037;-47
2022/05/17 10:19:47;;;;;;;1.40;1.17;;;;;;;17.47;63.97;101070.16;5041871;27;102056;-48
2022/05/17 10:22:22;;;;;;;2.05;1.50;;;;;;;17.47;64.11;101061.91;5044381;27;102501;-47
2022/05/17 10:24:54;;;;;;;2.60;1.70;;;;;;;17.45;63.93;101069.66;5052672;27;103984;-46
2022/05/17 10:27:27;;;;;;;2.83;1.55;;;;;;;17.47;63.63;101055.59;5053106;27;101854;-47
2022/05/17 10:29:57;;;;;;;2.22;1.60;;;;;;;17.46;63.83;101057.53;5053405;27;102468;-47
2022/05/17 10:32:29;;;;;;;1.70;1.30;;;;;;;17.48;63.79;101060.78;5053602;27;102251;-50
2022/05/17 10:34:59;;;;;;;1.73;1.42;;;;;;;17.46;63.50;101059.47;5052840;27;103916;-48
2022/05/17 10:37:30;;;;;;;2.53;1.40;;;;;;;17.45;63.94;101053.13;5052615;27;102272;-51
2022/05/17 10:40:04;;;;;;;4.80;1.85;;;;;;;17.47;64.02;101059.16;5053420;27;102134;-47
2022/05/17 10:42:31;;;;;;;2.03;1.40;;;;;;;17.49;63.30;101059.69;5053458;27;102101;-48
2022/05/17 10:44:59;;;;;;;2.47;1.55;;;;;;;17.46;63.87;101054.78;5049228;27;103885;-47
2022/05/17 10:47:39;;;;;;;3.20;1.40;;;;;;;17.48;63.34;101052.53;5051994;27;102679;-46
2022/05/17 10:50:16;;;;;;;1.85;1.20;;;;;;;17.51;63.82;101051.91;5049038;27;102246;-47
2022/05/17 10:52:58;;;;;;;4.47;1.50;;;;;;;17.51;63.52;101051.91;5051273;27;102462;-47
2022/05/17 10:55:33;;;;;;;2.17;1.20;;;;;;;17.51;63.78;101060.16;5044055;27;103986;-47
2022/05/17 10:58:12;;;;;;;1.45;1.20;;;;;;;17.53;62.52;101054.38;5039957;27;103603;-48
2022/05/17 11:00:42;;;;;;;1.50;1.35;;;;;;;17.51;63.24;101051.91;5041397;27;104153;-47
2022/05/17 11:03:37;;;;;;;1.85;1.65;;;;;;;17.50;63.27;101044.78;5042695;27;102349;-47
2022/05/17 11:06:21;;;;;;;2.33;1.10;;;;;;;17.48;63.87;101046.22;5048436;27;103976;-50
2022/05/17 11:08:56;;;;;;;2.83;1.13;;;;;;;17.46;63.80;101041.03;5043738;27;102040;-48
2022/05/17 11:11:35;;;;;;;1.98;1.40;;;;;;;17.43;63.52;101044.41;5050116;27;102602;-47
2022/05/17 11:14:06;;;;;;;1.33;1.17;;;;;;;17.46;63.55;101041.03;5039247;27;103751;-47
2022/05/17 11:16:40;;;;;;;3.10;1.30;;;;;;;17.45;63.13;101031.13;5034607;27;104147;-47
2022/05/17 11:19:15;;;;;;;2.38;1.60;;;;;;;17.43;63.75;101027.88;5044755;27;102416;-47
2022/05/17 11:21:52;;;;;;;1.40;1.30;;;;;;;17.42;63.73;101029.03;5049617;27;102425;-46
2022/05/17 11:24:34;;;;;;;1.70;1.30;;;;;;;17.43;64.01;101032.59;5053166;27;102120;-47
2022/05/17 11:27:36;;;;;;;3.30;1.15;;;;;;;17.42;63.94;101015.28;5051945;27;104082;-48
2022/05/17 11:30:15;;;;;;;1.83;1.40;;;;;;;17.39;63.81;101013.13;5048918;27;102338;-47
2022/05/17 11:33:08;;;;;;;2.72;1.27;;;;;;;17.42;63.39;101008.97;5053241;27;102431;-47
2022/05/17 11:35:38;;;;;;;7.60;1.50;;;;;;;17.43;63.04;101022.38;5053960;27;102497;-47
2022/05/17 11:38:06;;;;;;;2.17;1.23;;;;;;;17.41;63.21;101008.13;5051717;27;104059;-47
2022/05/17 11:40:50;;;;;;;;;;;;;;;17.38;63.47;101008.75;5046139;27;102248;-51
2022/05/17 11:46:06;;;;;;;2.17;1.40;;;;;;;17.40;62.16;101001.00;5051044;27;102542;-49
2022/05/17 11:48:52;;;;;;;2.03;1.40;;;;;;;17.38;62.98;100997.75;5044112;27;103819;-47